Time;durP1;ratioP1;P1;durP2;ratioP2;P2;SDS_P1;SDS_P2;PMS_P1;PMS_P2;Temp;Humidity;BMP_temperature;BMP_pressure;BME280_temperature;BME280_humidity;BME280_pressure;Samples;Min_cycle;Max_cycle;Signal;HPM_P1;HPM_P2
2024/01/27 00:00:18;;;;;;;20.13;4.43;;;4.90;99.90;;;;;;5067865;28;20305;-82
2024/01/27 00:02:44;;;;;;;28.03;4.87;;;4.90;99.90;;;;;;5068779;28;20314;-82
2024/01/27 00:05:11;;;;;;;26.03;4.67;;;4.80;99.90;;;;;;5085960;28;20254;-82
2024/01/27 00:07:40;;;;;;;23.47;5.03;;;4.80;99.90;;;;;;5060376;28;20743;-82
2024/01/27 00:10:08;;;;;;;24.40;5.40;;;4.80;99.90;;;;;;5086459;28;20681;-82
2024/01/27 00:12:34;;;;;;;26.80;4.57;;;4.80;99.90;;;;;;5054945;28;20227;-82
2024/01/27 00:15:01;;;;;;;18.90;4.53;;;4.80;99.90;;;;;;5084363;28;20238;-82
2024/01/27 00:17:28;;;;;;;24.50;5.73;;;4.70;99.90;;;;;;5064538;28;20307;-82
2024/01/27 00:19:55;;;;;;;23.13;4.93;;;4.70;99.90;;;;;;5068606;28;20308;-82
2024/01/27 00:22:21;;;;;;;26.03;4.60;;;4.70;99.90;;;;;;5063422;28;20222;-82
2024/01/27 00:24:49;;;;;;;19.43;4.90;;;4.70;99.90;;;;;;5065976;28;21021;-82
2024/01/27 00:27:16;;;;;;;22.80;4.97;;;4.70;99.90;;;;;;5069810;28;20403;-82
2024/01/27 00:29:43;;;;;;;19.33;4.77;;;4.70;99.90;;;;;;5087667;28;20222;-82
2024/01/27 00:32:09;;;;;;;21.77;4.77;;;4.70;99.90;;;;;;5059726;28;20249;-83
2024/01/27 00:34:36;;;;;;;23.53;5.03;;;4.70;99.90;;;;;;5063019;28;20253;-82
2024/01/27 00:37:03;;;;;;;24.53;5.40;;;4.80;99.90;;;;;;5065694;28;20312;-82
2024/01/27 00:39:30;;;;;;;19.30;4.23;;;4.80;99.90;;;;;;5076169;28;20242;-82
2024/01/27 00:41:58;;;;;;;24.83;5.23;;;4.80;99.90;;;;;;5093953;28;20753;-82
2024/01/27 00:44:25;;;;;;;21.13;4.67;;;4.80;99.90;;;;;;5072602;28;20723;-82
2024/01/27 00:46:52;;;;;;;17.87;4.17;;;4.90;99.90;;;;;;5060621;28;20213;-81
2024/01/27 00:49:19;;;;;;;26.20;4.53;;;4.90;99.90;;;;;;5071195;28;20479;-82
2024/01/27 00:51:46;;;;;;;22.87;4.43;;;4.90;99.90;;;;;;5090856;28;20224;-82
2024/01/27 00:54:13;;;;;;;18.60;4.33;;;4.90;99.90;;;;;;5062610;28;20221;-82
2024/01/27 00:56:40;;;;;;;20.53;5.17;;;5.00;99.90;;;;;;5079496;28;20252;-82
2024/01/27 00:59:08;;;;;;;25.07;4.60;;;5.00;99.90;;;;;;5056387;28;20362;-82
2024/01/27 01:01:35;;;;;;;20.37;4.30;;;5.00;99.90;;;;;;5055425;28;20235;-82
2024/01/27 01:04:02;;;;;;;18.60;4.27;;;5.10;99.90;;;;;;5052492;28;20234;-82
2024/01/27 01:06:29;;;;;;;28.07;4.73;;;5.00;99.90;;;;;;5080830;28;20242;-81
2024/01/27 01:08:56;;;;;;;23.77;4.60;;;5.00;99.90;;;;;;5088157;28;20793;-81
2024/01/27 01:11:23;;;;;;;27.13;4.37;;;5.00;99.90;;;;;;5059576;28;20304;-81
2024/01/27 01:13:50;;;;;;;24.37;4.33;;;5.10;99.90;;;;;;5095211;28;20270;-81
2024/01/27 01:16:18;;;;;;;25.33;4.97;;;5.10;99.90;;;;;;5062930;28;20226;-81
2024/01/27 01:18:45;;;;;;;19.90;4.50;;;5.10;99.90;;;;;;5094777;28;20331;-81
2024/01/27 01:21:13;;;;;;;24.93;4.97;;;5.10;99.90;;;;;;5069703;28;20229;-81
2024/01/27 01:23:40;;;;;;;26.17;5.00;;;5.10;99.90;;;;;;5091985;28;20229;-82
2024/01/27 01:26:08;;;;;;;24.10;4.83;;;5.10;99.90;;;;;;5069451;28;20228;-81
2024/01/27 01:28:35;;;;;;;30.03;6.10;;;5.10;99.90;;;;;;5069549;28;20237;-81
2024/01/27 01:31:02;;;;;;;24.30;5.43;;;5.20;99.90;;;;;;5066438;28;20299;-82
2024/01/27 01:33:30;;;;;;;22.93;5.47;;;5.20;99.90;;;;;;5070209;28;20309;-82
2024/01/27 01:35:57;;;;;;;18.80;4.90;;;5.20;99.90;;;;;;5068203;28;20227;-81
2024/01/27 01:38:24;;;;;;;20.50;4.93;;;5.20;99.90;;;;;;5069799;28;20239;-81
2024/01/27 01:40:51;;;;;;;26.50;5.37;;;5.20;99.90;;;;;;5073686;28;20213;-82
2024/01/27 01:43:18;;;;;;;27.30;5.57;;;5.20;99.90;;;;;;5080387;28;20227;-82
2024/01/27 01:45:45;;;;;;;21.70;4.63;;;5.30;99.90;;;;;;5069339;28;20307;-82
2024/01/27 01:48:12;;;;;;;20.83;4.70;;;5.30;99.90;;;;;;5062470;28;20227;-81
2024/01/27 01:50:41;;;;;;;20.80;4.97;;;5.30;99.90;;;;;;5083660;28;20229;-81
2024/01/27 01:53:08;;;;;;;26.20;5.13;;;5.30;99.90;;;;;;5066537;28;20222;-82
2024/01/27 01:55:36;;;;;;;24.63;4.93;;;5.30;99.90;;;;;;5086702;28;20227;-81
2024/01/27 01:58:03;;;;;;;17.83;4.23;;;5.30;99.90;;;;;;5088374;28;20223;-81
2024/01/27 02:00:30;;;;;;;26.10;4.93;;;5.30;99.90;;;;;;5065594;28;20225;-82
2024/01/27 02:02:57;;;;;;;21.27;4.73;;;5.30;99.90;;;;;;5067013;28;20266;-82
2024/01/27 02:05:24;;;;;;;18.40;4.33;;;5.30;99.90;;;;;;5085355;28;20815;-82
2024/01/27 02:07:56;;;;;;;24.37;4.33;;;5.30;99.90;;;;;;5078443;28;20603;-82
2024/01/27 02:10:23;;;;;;;27.57;5.30;;;5.30;99.90;;;;;;5058446;28;20220;-82
2024/01/27 02:12:50;;;;;;;21.37;4.43;;;5.30;99.90;;;;;;5060699;28;20763;-82
2024/01/27 02:15:17;;;;;;;23.73;4.30;;;5.30;99.90;;;;;;5068459;28;20754;-82
2024/01/27 02:17:44;;;;;;;20.67;4.87;;;5.30;99.90;;;;;;5059601;28;20227;-82
2024/01/27 02:20:11;;;;;;;19.27;4.50;;;5.30;99.90;;;;;;5072402;28;20315;-81
2024/01/27 02:22:38;;;;;;;21.30;3.93;;;5.30;99.90;;;;;;5058208;28;20245;-81
2024/01/27 02:25:06;;;;;;;22.60;5.20;;;5.30;99.90;;;;;;5056584;28;20225;-82
2024/01/27 02:27:33;;;;;;;23.93;4.93;;;5.30;99.90;;;;;;5053193;28;20229;-82
2024/01/27 02:30:00;;;;;;;19.27;4.47;;;5.40;99.90;;;;;;5064773;28;20220;-81
2024/01/27 02:32:27;;;;;;;26.40;5.00;;;5.30;99.90;;;;;;5069041;28;20225;-81
2024/01/27 02:34:53;;;;;;;26.13;5.43;;;5.30;99.90;;;;;;5069393;28;21056;-82
2024/01/27 02:37:20;;;;;;;29.20;4.90;;;5.40;99.90;;;;;;5067140;28;20316;-82
2024/01/27 02:39:47;;;;;;;20.97;4.43;;;5.40;99.90;;;;;;5081373;28;20472;-82
2024/01/27 02:42:15;;;;;;;25.30;5.43;;;5.30;99.90;;;;;;5062779;28;20346;-81
2024/01/27 02:44:42;;;;;;;20.93;4.07;;;5.30;99.90;;;;;;5064191;28;20669;-81
2024/01/27 02:47:09;;;;;;;21.93;4.10;;;5.30;99.90;;;;;;5047747;28;20571;-81
2024/01/27 02:49:36;;;;;;;24.23;4.67;;;5.30;99.90;;;;;;5076431;28;20233;-82
2024/01/27 02:52:03;;;;;;;24.60;4.40;;;5.30;99.90;;;;;;5057709;28;20285;-81
2024/01/27 02:54:30;;;;;;;23.43;4.73;;;5.30;99.90;;;;;;5062983;28;20226;-82
2024/01/27 02:56:57;;;;;;;24.77;4.97;;;5.30;99.90;;;;;;5060889;28;20230;-82
2024/01/27 02:59:26;;;;;;;23.90;5.13;;;5.30;99.90;;;;;;5084882;28;20227;-81
2024/01/27 03:01:53;;;;;;;23.37;4.50;;;5.40;99.90;;;;;;5061735;28;20230;-83
2024/01/27 03:04:20;;;;;;;21.60;5.00;;;5.40;99.90;;;;;;5065919;28;20223;-81
2024/01/27 03:06:47;;;;;;;25.27;4.77;;;5.40;99.90;;;;;;5059080;28;20734;-81
2024/01/27 03:09:14;;;;;;;21.23;4.67;;;5.40;99.90;;;;;;5060720;28;20872;-81
2024/01/27 03:11:41;;;;;;;22.37;4.53;;;5.40;99.90;;;;;;5075498;28;20229;-82
2024/01/27 03:14:08;;;;;;;18.83;4.50;;;5.40;99.90;;;;;;5069664;28;20319;-81
2024/01/27 03:16:36;;;;;;;22.63;5.87;;;5.50;99.90;;;;;;5086836;28;20231;-81
2024/01/27 03:19:03;;;;;;;22.53;5.20;;;5.40;99.90;;;;;;5075561;28;20334;-81
2024/01/27 03:21:30;;;;;;;24.33;5.00;;;5.40;99.90;;;;;;5057187;28;20234;-81
2024/01/27 03:23:57;;;;;;;18.67;4.33;;;5.40;99.90;;;;;;5073002;28;20638;-81
2024/01/27 03:26:24;;;;;;;25.73;5.33;;;5.40;99.90;;;;;;5064223;28;20934;-81
2024/01/27 03:28:51;;;;;;;23.67;5.07;;;5.40;99.90;;;;;;5064796;28;20839;-81
2024/01/27 03:31:18;;;;;;;21.27;4.93;;;5.40;99.90;;;;;;5063857;28;20223;-82
2024/01/27 03:33:47;;;;;;;27.30;5.33;;;5.30;99.90;;;;;;5057152;28;20754;-82
2024/01/27 03:36:14;;;;;;;22.90;5.27;;;5.40;99.90;;;;;;5077886;28;20227;-81
2024/01/27 03:38:42;;;;;;;17.70;5.17;;;5.40;99.90;;;;;;5059456;28;20328;-81
2024/01/27 03:41:08;;;;;;;25.13;5.23;;;5.40;99.90;;;;;;5057827;28;20243;-82
2024/01/27 03:43:35;;;;;;;22.37;4.97;;;5.30;99.90;;;;;;5065062;28;20845;-82
2024/01/27 03:46:02;;;;;;;19.33;4.63;;;5.40;99.90;;;;;;5040030;28;20306;-82
2024/01/27 03:48:29;;;;;;;24.33;5.17;;;5.40;99.90;;;;;;5069856;28;20770;-82
2024/01/27 03:50:57;;;;;;;22.53;4.97;;;5.30;99.90;;;;;;5050271;28;20243;-83
2024/01/27 03:53:24;;;;;;;25.37;6.00;;;5.30;99.90;;;;;;5046697;28;20718;-82
2024/01/27 03:55:51;;;;;;;20.57;5.37;;;5.30;99.90;;;;;;5050608;28;20223;-82
2024/01/27 03:58:18;;;;;;;23.53;4.67;;;5.30;99.90;;;;;;5063197;28;20299;-82
2024/01/27 04:00:45;;;;;;;21.03;4.90;;;5.30;99.90;;;;;;5059515;28;20249;-82
2024/01/27 04:03:12;;;;;;;21.33;4.27;;;5.30;99.90;;;;;;5079898;28;20782;-82
2024/01/27 04:05:38;;;;;;;25.50;4.77;;;5.30;99.90;;;;;;5055659;28;20235;-82
2024/01/27 04:08:07;;;;;;;21.77;4.97;;;5.20;99.90;;;;;;5057464;28;20277;-82
2024/01/27 04:10:34;;;;;;;20.83;4.47;;;5.20;99.90;;;;;;5041550;28;20224;-82
2024/01/27 04:13:01;;;;;;;22.70;5.20;;;5.20;99.90;;;;;;5074287;28;20224;-82
2024/01/27 04:15:28;;;;;;;25.13;5.30;;;5.20;99.90;;;;;;5064568;28;20247;-83
2024/01/27 04:17:55;;;;;;;28.13;6.03;;;5.20;99.90;;;;;;5081482;28;20928;-82
2024/01/27 04:20:22;;;;;;;22.33;5.57;;;5.20;99.90;;;;;;5055502;28;20698;-82
2024/01/27 04:22:48;;;;;;;28.47;5.43;;;5.20;99.90;;;;;;5052156;28;20224;-83
2024/01/27 04:25:17;;;;;;;20.57;4.33;;;5.10;99.90;;;;;;5046468;28;20246;-82
2024/01/27 04:27:43;;;;;;;27.03;5.23;;;5.20;99.90;;;;;;5064576;28;20749;-83
2024/01/27 04:30:13;;;;;;;22.97;5.40;;;5.20;99.90;;;;;;5060493;28;21211;-83
2024/01/27 04:32:39;;;;;;;18.73;4.40;;;5.20;99.90;;;;;;5054791;28;20882;-82
2024/01/27 04:35:09;;;;;;;22.17;4.73;;;5.20;99.90;;;;;;5057697;28;20252;-82
2024/01/27 04:37:36;;;;;;;23.07;5.03;;;5.20;99.90;;;;;;5073804;28;20322;-83
2024/01/27 04:40:05;;;;;;;22.53;4.70;;;5.20;99.90;;;;;;5058161;28;20282;-83
2024/01/27 04:42:33;;;;;;;22.70;4.83;;;5.20;99.90;;;;;;5058875;28;20223;-82
2024/01/27 04:45:00;;;;;;;25.13;4.67;;;5.10;99.90;;;;;;5063181;28;20318;-82
2024/01/27 04:47:27;;;;;;;26.10;4.80;;;5.10;99.90;;;;;;5066621;28;20893;-82
2024/01/27 04:49:55;;;;;;;34.87;5.17;;;5.10;99.90;;;;;;5066959;28;20246;-82
2024/01/27 04:52:22;;;;;;;23.73;4.77;;;5.10;99.90;;;;;;5066716;28;20232;-82
2024/01/27 04:54:48;;;;;;;27.17;5.83;;;5.10;99.90;;;;;;5055972;28;20724;-81
2024/01/27 04:57:15;;;;;;;19.17;5.30;;;5.10;99.90;;;;;;5066010;28;20692;-82
2024/01/27 04:59:43;;;;;;;22.77;5.10;;;5.10;99.90;;;;;;5079621;28;20260;-82
2024/01/27 05:02:10;;;;;;;24.33;4.80;;;5.10;99.90;;;;;;5067129;28;20311;-82
2024/01/27 05:04:38;;;;;;;20.47;4.80;;;5.10;99.90;;;;;;5054090;28;20278;-82
2024/01/27 05:07:05;;;;;;;24.43;4.40;;;5.10;99.90;;;;;;5064053;28;20228;-82
2024/01/27 05:09:32;;;;;;;28.13;4.73;;;5.10;99.90;;;;;;5080867;28;20325;-82
2024/01/27 05:12:00;;;;;;;23.63;4.47;;;5.10;99.90;;;;;;5051175;28;20232;-82
2024/01/27 05:14:27;;;;;;;22.53;4.27;;;5.00;99.90;;;;;;5061582;28;20243;-82
2024/01/27 05:16:55;;;;;;;24.77;5.10;;;5.00;99.90;;;;;;5068211;28;20231;-82
2024/01/27 05:19:22;;;;;;;24.37;5.17;;;5.00;99.90;;;;;;5051760;28;20215;-82
2024/01/27 05:21:49;;;;;;;22.50;4.13;;;5.10;99.90;;;;;;5053954;28;21005;-82
2024/01/27 05:24:16;;;;;;;24.73;5.43;;;5.00;99.90;;;;;;5055100;28;20310;-82
2024/01/27 05:26:42;;;;;;;19.73;4.53;;;5.00;99.90;;;;;;5074073;28;20274;-82
2024/01/27 05:29:09;;;;;;;28.57;6.13;;;5.00;99.90;;;;;;5071989;28;20318;-81
2024/01/27 05:31:36;;;;;;;26.13;5.80;;;5.00;99.90;;;;;;5073651;28;20229;-82
2024/01/27 05:34:04;;;;;;;15.33;4.43;;;4.90;99.90;;;;;;5070702;28;20232;-82
2024/01/27 05:36:31;;;;;;;21.90;4.57;;;4.90;99.90;;;;;;5057947;28;20303;-82
2024/01/27 05:38:58;;;;;;;30.30;5.83;;;4.90;99.90;;;;;;5060315;28;20220;-81
2024/01/27 05:41:28;;;;;;;23.03;4.90;;;4.90;99.90;;;;;;5068099;28;20255;-83
2024/01/27 05:43:56;;;;;;;22.70;4.97;;;4.90;99.90;;;;;;5065860;28;20275;-84
2024/01/27 05:46:24;;;;;;;22.50;5.07;;;4.90;99.90;;;;;;5063412;28;20966;-83
2024/01/27 05:48:53;;;;;;;25.07;5.23;;;4.90;99.90;;;;;;5083087;28;20313;-83
2024/01/27 05:51:22;;;;;;;22.00;4.93;;;4.90;99.90;;;;;;5060705;28;20223;-82
2024/01/27 05:53:49;;;;;;;17.97;4.30;;;4.90;99.90;;;;;;5054258;28;20238;-83
2024/01/27 05:56:17;;;;;;;26.53;6.10;;;4.90;99.90;;;;;;5066636;28;20274;-83
2024/01/27 05:58:43;;;;;;;22.10;4.97;;;4.90;99.90;;;;;;5058418;28;20230;-83
2024/01/27 06:01:10;;;;;;;27.70;5.33;;;4.90;99.90;;;;;;5061282;28;20265;-85
2024/01/27 06:03:37;;;;;;;23.53;5.27;;;4.80;99.90;;;;;;5065849;28;20231;-84
2024/01/27 06:06:04;;;;;;;18.60;4.83;;;4.80;99.90;;;;;;5080127;28;20210;-84
2024/01/27 06:08:32;;;;;;;23.00;5.10;;;4.80;99.90;;;;;;5065479;28;20348;-84
2024/01/27 06:10:58;;;;;;;23.13;5.53;;;4.80;99.90;;;;;;5067534;28;20884;-84
2024/01/27 06:13:25;;;;;;;22.30;4.90;;;4.80;99.90;;;;;;5081695;28;20226;-82
2024/01/27 06:15:52;;;;;;;23.07;5.30;;;4.70;99.90;;;;;;5065560;28;20233;-84
2024/01/27 06:18:19;;;;;;;23.77;5.30;;;4.80;99.90;;;;;;5066416;28;20973;-83
2024/01/27 06:20:46;;;;;;;20.70;5.00;;;4.70;99.90;;;;;;5069549;28;20296;-85
2024/01/27 06:23:12;;;;;;;29.87;5.87;;;4.70;99.90;;;;;;5053718;28;20308;-84
2024/01/27 06:25:41;;;;;;;26.17;5.47;;;4.70;99.90;;;;;;5070832;28;20227;-84
2024/01/27 06:28:07;;;;;;;27.20;5.70;;;4.60;99.90;;;;;;5069894;28;20241;-84
2024/01/27 06:30:34;;;;;;;27.50;5.10;;;4.70;99.90;;;;;;5067270;28;20262;-86
2024/01/27 06:33:02;;;;;;;18.23;4.60;;;4.60;99.90;;;;;;5066746;28;20226;-86
2024/01/27 06:35:29;;;;;;;30.70;5.80;;;4.60;99.90;;;;;;5055713;28;21267;-86
2024/01/27 06:37:56;;;;;;;21.67;4.90;;;4.60;99.90;;;;;;5059907;28;20266;-87
2024/01/27 06:40:23;;;;;;;27.80;5.93;;;4.60;99.90;;;;;;5063707;28;20355;-87
2024/01/27 06:42:51;;;;;;;16.20;4.80;;;4.60;99.90;;;;;;5063215;28;20218;-86
2024/01/27 06:45:18;;;;;;;22.87;5.27;;;4.50;99.90;;;;;;5075161;28;20253;-86
2024/01/27 06:47:45;;;;;;;26.17;4.70;;;4.50;99.90;;;;;;5075458;28;20615;-85
2024/01/27 06:50:13;;;;;;;22.00;5.47;;;4.50;99.90;;;;;;5076282;28;20231;-87
2024/01/27 06:52:41;;;;;;;23.27;5.17;;;4.50;99.90;;;;;;5059513;28;20229;-86
2024/01/27 06:55:10;;;;;;;22.27;5.40;;;4.40;99.90;;;;;;5061544;28;20228;-86
2024/01/27 06:57:37;;;;;;;23.90;5.03;;;4.50;99.90;;;;;;5064018;28;20279;-86
2024/01/27 07:00:07;;;;;;;22.03;4.97;;;4.40;99.90;;;;;;5060281;28;20217;-87
2024/01/27 07:02:34;;;;;;;28.10;4.90;;;4.40;99.90;;;;;;5028018;28;20697;-87
2024/01/27 07:05:00;;;;;;;24.40;5.27;;;4.40;99.90;;;;;;5064628;28;20323;-87
2024/01/27 07:07:29;;;;;;;22.47;5.03;;;4.40;99.90;;;;;;5060396;28;20297;-85
2024/01/27 07:09:56;;;;;;;22.60;4.80;;;4.30;99.90;;;;;;5065587;28;20329;-85
2024/01/27 07:12:23;;;;;;;21.90;4.63;;;4.30;99.90;;;;;;5062265;28;20944;-84
2024/01/27 07:14:51;;;;;;;18.27;4.60;;;4.30;99.90;;;;;;5067023;28;20311;-83
2024/01/27 07:17:19;;;;;;;16.93;4.60;;;4.20;99.90;;;;;;5073705;28;20914;-83
2024/01/27 07:19:46;;;;;;;21.20;4.37;;;4.20;99.90;;;;;;5069358;28;20313;-84
2024/01/27 07:22:13;;;;;;;27.07;4.63;;;4.20;99.90;;;;;;5062146;28;20229;-84
2024/01/27 07:24:39;;;;;;;21.90;4.47;;;4.10;99.90;;;;;;5066266;28;20238;-84
2024/01/27 07:27:06;;;;;;;21.57;4.63;;;4.10;99.90;;;;;;5059520;28;20229;-85
2024/01/27 07:29:33;;;;;;;22.53;5.87;;;4.10;99.90;;;;;;5065362;28;20941;-85
2024/01/27 07:32:00;;;;;;;24.93;4.83;;;4.00;99.90;;;;;;5065837;28;20312;-86
2024/01/27 07:34:28;;;;;;;16.60;3.83;;;4.00;99.90;;;;;;5064425;28;20304;-87
2024/01/27 07:36:55;;;;;;;21.37;4.50;;;4.00;99.90;;;;;;5064286;28;20221;-85
2024/01/27 07:39:21;;;;;;;22.47;4.73;;;3.90;99.90;;;;;;5069279;28;20245;-84
2024/01/27 07:41:48;;;;;;;17.60;3.90;;;3.90;99.90;;;;;;5067539;28;20308;-85
2024/01/27 07:44:15;;;;;;;22.53;4.90;;;3.90;99.90;;;;;;5064415;28;20225;-85
2024/01/27 07:46:43;;;;;;;20.97;5.03;;;3.90;99.90;;;;;;5061958;28;20236;-86
2024/01/27 07:49:12;;;;;;;21.60;4.57;;;3.80;99.90;;;;;;5072753;28;20663;-86
2024/01/27 07:51:40;;;;;;;16.70;3.67;;;3.80;99.90;;;;;;5061418;28;20223;-86
2024/01/27 07:54:07;;;;;;;25.67;4.43;;;3.80;99.90;;;;;;5064139;28;20249;-85
2024/01/27 07:56:34;;;;;;;20.63;4.47;;;3.70;99.90;;;;;;5075970;28;20229;-84
2024/01/27 07:59:01;;;;;;;23.83;4.60;;;3.80;99.90;;;;;;5052949;28;20253;-87
2024/01/27 08:01:27;;;;;;;23.20;3.97;;;3.70;99.90;;;;;;5054453;28;20229;-85
2024/01/27 08:03:54;;;;;;;21.83;4.50;;;3.70;99.90;;;;;;5054710;28;20227;-86
2024/01/27 08:06:28;;;;;;;23.90;4.10;;;3.70;99.90;;;;;;5044043;28;20954;-86
2024/01/27 08:08:56;;;;;;;28.27;5.57;;;3.70;99.90;;;;;;5065207;28;20221;-84
2024/01/27 08:11:22;;;;;;;20.23;4.53;;;3.70;99.90;;;;;;5042583;28;20285;-86
2024/01/27 08:13:51;;;;;;;18.97;4.30;;;3.70;99.90;;;;;;5063661;28;20471;-86
2024/01/27 08:16:18;;;;;;;20.90;4.33;;;3.70;99.90;;;;;;5056503;28;20333;-85
2024/01/27 08:18:46;;;;;;;18.67;4.10;;;3.70;99.90;;;;;;5066547;28;20304;-84
2024/01/27 08:21:12;;;;;;;23.17;4.53;;;3.70;99.90;;;;;;5073419;28;20652;-85
2024/01/27 08:23:39;;;;;;;22.80;3.97;;;3.70;99.90;;;;;;5066192;28;20228;-85
2024/01/27 08:26:07;;;;;;;17.60;4.40;;;3.70;99.90;;;;;;5054764;28;20252;-86
2024/01/27 08:28:34;;;;;;;20.37;4.90;;;3.70;99.90;;;;;;5044465;28;20226;-85
2024/01/27 08:31:01;;;;;;;20.37;4.83;;;3.70;99.90;;;;;;5067559;28;20228;-85
2024/01/27 08:33:28;;;;;;;20.33;4.87;;;3.70;99.90;;;;;;5065338;28;20229;-84
2024/01/27 08:35:55;;;;;;;19.60;3.97;;;3.70;99.90;;;;;;5079485;28;20280;-85
2024/01/27 08:38:21;;;;;;;19.63;4.43;;;3.80;99.90;;;;;;5080174;28;20719;-84
2024/01/27 08:40:48;;;;;;;15.70;4.83;;;3.80;99.90;;;;;;5061220;28;20648;-84
2024/01/27 08:43:16;;;;;;;19.00;4.47;;;3.80;99.90;;;;;;5081027;28;20226;-84
2024/01/27 08:45:43;;;;;;;18.60;4.40;;;3.90;99.90;;;;;;5078332;28;20230;-84
2024/01/27 08:48:11;;;;;;;23.67;5.13;;;3.90;99.90;;;;;;5080932;28;20305;-85
2024/01/27 08:50:38;;;;;;;21.13;4.07;;;3.90;99.90;;;;;;5080473;28;20300;-84
2024/01/27 08:53:04;;;;;;;17.90;4.20;;;4.00;99.90;;;;;;5082271;28;20305;-84
2024/01/27 08:55:31;;;;;;;20.50;4.50;;;4.00;99.90;;;;;;5064562;28;20312;-85
2024/01/27 08:57:58;;;;;;;19.87;4.60;;;4.10;99.90;;;;;;5060690;28;20221;-84
2024/01/27 09:00:26;;;;;;;18.13;3.90;;;4.10;99.90;;;;;;5069450;28;20305;-84
2024/01/27 09:02:53;;;;;;;14.80;3.90;;;4.20;99.90;;;;;;5067224;28;20261;-83
2024/01/27 09:05:20;;;;;;;19.33;4.23;;;4.30;99.90;;;;;;5064820;28;20222;-83
2024/01/27 09:07:47;;;;;;;16.10;3.90;;;4.40;99.90;;;;;;5061294;28;20446;-83
2024/01/27 09:10:15;;;;;;;17.83;3.70;;;4.50;99.90;;;;;;5070464;28;20325;-82
2024/01/27 09:12:42;;;;;;;13.87;4.03;;;4.50;99.90;;;;;;5079322;28;20214;-83
2024/01/27 09:15:09;;;;;;;14.60;3.63;;;4.60;99.90;;;;;;5069618;28;20307;-82
2024/01/27 09:17:38;;;;;;;14.43;3.83;;;4.70;99.90;;;;;;5074518;28;20222;-84
2024/01/27 09:20:05;;;;;;;19.37;4.07;;;4.80;99.90;;;;;;5072023;28;20245;-83
2024/01/27 09:22:32;;;;;;;19.63;4.47;;;4.90;99.90;;;;;;5071243;28;20318;-82
2024/01/27 09:24:59;;;;;;;18.57;4.97;;;5.00;99.90;;;;;;5063098;28;20311;-83
2024/01/27 09:27:26;;;;;;;16.50;4.10;;;5.00;99.90;;;;;;5087202;28;20910;-81
2024/01/27 09:29:53;;;;;;;16.93;4.10;;;5.10;99.90;;;;;;5090585;28;20220;-82
2024/01/27 09:32:19;;;;;;;17.23;4.00;;;5.10;99.90;;;;;;5064642;28;20212;-83
2024/01/27 09:34:47;;;;;;;17.23;4.40;;;5.10;99.90;;;;;;5055229;28;20248;-84
2024/01/27 09:37:14;;;;;;;17.03;3.87;;;5.20;99.90;;;;;;5053047;28;20300;-83
2024/01/27 09:39:41;;;;;;;16.17;4.13;;;5.30;99.90;;;;;;5063088;28;20230;-84
2024/01/27 09:42:13;;;;;;;12.20;4.20;;;5.30;99.90;;;;;;5063395;28;20224;-83
2024/01/27 09:44:42;;;;;;;22.00;4.57;;;5.50;99.90;;;;;;5062950;28;20227;-84
2024/01/27 09:47:10;;;;;;;14.67;4.03;;;5.50;99.90;;;;;;5063022;28;20217;-84
2024/01/27 09:49:39;;;;;;;15.60;3.90;;;5.60;99.90;;;;;;5062422;28;20240;-84
2024/01/27 09:52:08;;;;;;;15.67;3.57;;;5.60;99.90;;;;;;5079481;28;20713;-83
2024/01/27 09:54:35;;;;;;;15.07;4.63;;;5.70;99.90;;;;;;5063365;28;20382;-83
2024/01/27 09:57:02;;;;;;;19.33;4.67;;;5.80;99.90;;;;;;5063013;28;20307;-83
2024/01/27 09:59:29;;;;;;;17.47;4.50;;;5.90;99.90;;;;;;5062088;28;20282;-83
2024/01/27 10:01:57;;;;;;;24.40;4.30;;;6.00;99.90;;;;;;5063066;28;20278;-83
2024/01/27 10:04:26;;;;;;;15.77;4.40;;;6.10;99.90;;;;;;5063656;28;20282;-83
2024/01/27 10:06:53;;;;;;;14.00;3.77;;;6.20;99.90;;;;;;5061367;28;20213;-83
2024/01/27 10:09:21;;;;;;;17.57;5.00;;;6.20;99.90;;;;;;5063603;28;20246;-82
2024/01/27 10:11:48;;;;;;;13.93;3.87;;;6.30;99.90;;;;;;5063197;28;20299;-83
2024/01/27 10:14:15;;;;;;;16.67;3.83;;;6.40;99.90;;;;;;5061255;28;20250;-84
2024/01/27 10:16:42;;;;;;;16.67;4.37;;;6.50;99.90;;;;;;5077554;28;20577;-84
2024/01/27 10:19:15;;;;;;;17.73;3.93;;;6.50;99.90;;;;;;5082027;28;20228;-83
2024/01/27 10:21:42;;;;;;;15.47;4.20;;;6.70;99.90;;;;;;5060159;28;20249;-84
2024/01/27 10:24:09;;;;;;;13.67;3.83;;;6.70;99.90;;;;;;5077018;28;20702;-84
2024/01/27 10:26:37;;;;;;;12.80;4.13;;;6.80;99.90;;;;;;5060732;28;20257;-84
2024/01/27 10:29:04;;;;;;;18.83;4.37;;;7.00;99.90;;;;;;5063886;28;20231;-84
2024/01/27 10:31:32;;;;;;;11.97;3.77;;;7.00;99.90;;;;;;5062756;28;20237;-83
2024/01/27 10:34:01;;;;;;;13.97;4.27;;;7.10;99.90;;;;;;5061793;28;20768;-84
2024/01/27 10:36:38;;;;;;;16.90;3.70;;;7.30;99.90;;;;;;5060006;28;20236;-83
2024/01/27 10:39:15;;;;;;;13.50;3.80;;;7.40;99.90;;;;;;5065250;28;20210;-84
2024/01/27 10:41:45;;;;;;;14.87;3.53;;;7.40;99.90;;;;;;5061459;28;21159;-83
2024/01/27 10:44:15;;;;;;;17.50;4.20;;;7.60;99.90;;;;;;5063242;28;20227;-84
2024/01/27 10:46:45;;;;;;;14.40;3.50;;;7.70;99.90;;;;;;5057721;28;20262;-84
2024/01/27 10:49:13;;;;;;;16.97;4.67;;;7.80;99.90;;;;;;5080225;28;20221;-84
2024/01/27 10:51:44;;;;;;;14.47;3.40;;;7.90;99.90;;;;;;5061404;28;20333;-84
2024/01/27 10:54:16;;;;;;;12.77;3.30;;;8.00;99.90;;;;;;5043971;28;20716;-83
2024/01/27 10:56:46;;;;;;;12.73;4.00;;;8.20;99.90;;;;;;5039143;28;20914;-84
2024/01/27 10:59:15;;;;;;;16.30;4.10;;;8.30;99.90;;;;;;5048281;28;20654;-84
2024/01/27 11:01:43;;;;;;;20.23;4.47;;;8.30;99.90;;;;;;5056469;28;20992;-84
2024/01/27 11:04:13;;;;;;;14.00;3.73;;;8.40;99.90;;;;;;5057381;28;20247;-84
2024/01/27 11:06:41;;;;;;;18.20;4.03;;;8.40;99.90;;;;;;5071188;28;20635;-84
2024/01/27 11:09:11;;;;;;;15.17;3.90;;;8.50;99.90;;;;;;5073347;28;20924;-84
2024/01/27 11:11:39;;;;;;;13.30;3.57;;;8.60;99.90;;;;;;5075518;28;20245;-84
2024/01/27 11:14:07;;;;;;;16.10;4.23;;;8.60;99.90;;;;;;5056679;28;20277;-84
2024/01/27 11:16:35;;;;;;;16.67;5.17;;;8.70;99.90;;;;;;5075032;28;20356;-84
2024/01/27 11:19:03;;;;;;;12.43;3.80;;;8.70;99.90;;;;;;5056186;28;20685;-84
2024/01/27 11:21:29;;;;;;;17.07;3.73;;;8.70;99.90;;;;;;5055906;28;20227;-84
2024/01/27 11:23:56;;;;;;;14.80;3.97;;;8.80;99.90;;;;;;5054524;28;20247;-83
2024/01/27 11:26:25;;;;;;;13.17;3.67;;;8.80;99.90;;;;;;5072258;28;20305;-83
2024/01/27 11:28:52;;;;;;;16.03;4.17;;;8.80;99.90;;;;;;5058396;28;20217;-84
2024/01/27 11:31:21;;;;;;;13.30;3.70;;;8.90;99.90;;;;;;5057773;28;20297;-83
2024/01/27 11:33:51;;;;;;;13.13;3.63;;;8.90;99.90;;;;;;5058409;28;20670;-83
2024/01/27 11:36:23;;;;;;;13.10;4.23;;;8.90;99.90;;;;;;5072650;28;20222;-83
2024/01/27 11:38:50;;;;;;;18.30;3.70;;;8.90;99.90;;;;;;5057249;28;20878;-84
2024/01/27 11:41:27;;;;;;;14.30;3.77;;;9.00;99.90;;;;;;5057562;28;20214;-84
2024/01/27 11:43:55;;;;;;;15.40;3.90;;;8.90;99.90;;;;;;5078409;28;20334;-84
2024/01/27 11:46:23;;;;;;;14.43;3.60;;;9.00;99.90;;;;;;5057916;28;20242;-83
2024/01/27 11:48:50;;;;;;;17.87;3.93;;;8.90;99.90;;;;;;5058691;28;20264;-83
2024/01/27 11:51:18;;;;;;;13.07;3.73;;;9.00;99.90;;;;;;5076208;28;20633;-84
2024/01/27 11:53:45;;;;;;;13.10;3.83;;;9.00;99.90;;;;;;5056814;28;20348;-84
2024/01/27 11:56:12;;;;;;;15.37;3.73;;;9.00;99.90;;;;;;5058785;28;20229;-84
2024/01/27 11:58:39;;;;;;;13.63;3.80;;;9.10;99.90;;;;;;5073770;28;20321;-82
2024/01/27 12:01:05;;;;;;;14.00;3.70;;;9.10;99.90;;;;;;5073260;28;20210;-83
2024/01/27 12:03:33;;;;;;;13.97;3.33;;;9.10;99.90;;;;;;5060099;28;20639;-84
2024/01/27 12:06:00;;;;;;;12.77;3.37;;;9.20;99.90;;;;;;5055944;28;20223;-84
2024/01/27 12:08:27;;;;;;;11.93;3.33;;;9.20;99.90;;;;;;5057499;28;20678;-83
2024/01/27 12:10:54;;;;;;;14.40;3.47;;;9.20;99.90;;;;;;5077196;28;20231;-83
2024/01/27 12:13:21;;;;;;;14.60;3.90;;;9.20;99.90;;;;;;5060771;28;20274;-84
2024/01/27 12:15:48;;;;;;;12.10;3.50;;;9.20;99.90;;;;;;5054309;28;20318;-83
2024/01/27 12:18:15;;;;;;;14.33;3.20;;;9.20;99.90;;;;;;5056284;28;20222;-83
2024/01/27 12:20:43;;;;;;;13.60;3.90;;;9.20;99.90;;;;;;5074231;28;20226;-83
2024/01/27 12:23:10;;;;;;;12.97;3.37;;;9.10;99.90;;;;;;5056184;28;20753;-83
2024/01/27 12:25:37;;;;;;;15.57;3.43;;;9.10;99.90;;;;;;5046644;28;20242;-83
2024/01/27 12:28:04;;;;;;;13.23;3.40;;;9.10;99.90;;;;;;5070306;28;20223;-82
2024/01/27 12:30:33;;;;;;;10.97;3.27;;;9.00;99.90;;;;;;5049226;28;20227;-84
2024/01/27 12:33:00;;;;;;;15.37;3.27;;;9.00;99.90;;;;;;5057769;28;20306;-83
2024/01/27 12:35:28;;;;;;;11.57;3.13;;;8.90;99.90;;;;;;5040574;28;20284;-84
2024/01/27 12:37:56;;;;;;;13.13;3.30;;;8.90;99.90;;;;;;5074190;28;20234;-83
2024/01/27 12:40:24;;;;;;;14.37;3.00;;;8.90;99.90;;;;;;5059701;28;20309;-83
2024/01/27 12:42:51;;;;;;;15.93;3.33;;;8.70;99.90;;;;;;5058518;28;20322;-83
2024/01/27 12:45:18;;;;;;;10.80;3.70;;;8.70;99.90;;;;;;5058681;28;20229;-83
2024/01/27 12:47:45;;;;;;;13.03;3.23;;;8.70;99.90;;;;;;5077140;28;20246;-83